Flight Track Log - Related Links

Times and Time Zones

All times are in EDT time to prevent confusion due to time zone crossing. See the SWA267 flight status page for this flight to view local times or setup timezone preferences in your user account.

Time Position Orientation Groundspeed Altitude Reporting Facility
EDT Latitude Longitude Course Direction KTS MPH feet Rate Location/Type
Wed 12:31:08 PM 36.8633 -76.2772 248° West 223 257 3,400  Level Washington Center
Wed 12:32:09 PM 36.8881 -76.3475 294° West 219 252 6,000 2,331 Climbing Washington Center
Wed 12:33:09 PM 36.9147 -76.4308 292° West 282 325 8,100 2,491 Climbing Washington Center
Wed 12:33:55 PM 36.9497 -76.4858 309° West 290 334 10,400 1,981 Climbing Washington Center
Wed 12:34:55 PM 37.0011 -76.5722 307° West 301 346 11,600 1,800 Climbing Washington Center
Wed 12:35:55 PM 37.0589 -76.6667 307° West 318 366 14,000 2,150 Climbing Washington Center
Wed 12:36:55 PM 37.1183 -76.7667 307° West 338 389 15,900 1,000 Climbing Washington Center
Wed 12:37:55 PM 37.2053 -76.8306 330° Northwest 351 404 16,000 50 Climbing Washington Center
Wed 12:38:55 PM 37.3178 -76.8558 350° North 379 436 16,000  Level Washington Center
Wed 12:39:55 PM 37.4239 -76.8864 347° North 379 436 16,000 -50 Level Washington Center
Wed 12:40:55 PM 37.5153 -76.9061 350° North 384 442 15,900  Descending Washington Center
Wed 12:41:55 PM 37.6069 -76.9314 348° North 359 413 16,000 50 Climbing Washington Center
Wed 12:42:55 PM 37.6900 -76.9539 348° North 326 375 16,000  Level Washington Center
Wed 12:43:55 PM 37.7836 -76.9764 349° North 311 358 16,000  Level Washington Center
Wed 12:44:55 PM 37.8689 -77.0017 347° North 311 358 16,000  Level Washington Center
Wed 12:45:55 PM 37.9561 -77.0244 348° North 316 364 16,000  Level Washington Center
Wed 12:46:55 PM 38.0433 -77.0472 348° North 316 364 16,000 -350 Level Washington Center
Wed 12:47:55 PM 38.1308 -77.0700 348° North 316 364 15,300 -500 Descending Washington Center
Wed 12:48:55 PM 38.2264 -77.0956 348° North 322 371 15,000 -150 Descending Washington Center
Wed 12:49:55 PM 38.3136 -77.1239 346° North 340 391 15,000 -200 Level Washington Center
Wed 12:50:55 PM 38.4139 -77.1075 North 353 406 14,600 -1,250 Descending Washington Center
Wed 12:51:55 PM 38.4944 -77.0056 45° Northeast 349 402 12,500 -1,350 Descending Washington Center
Wed 12:52:55 PM 38.5683 -76.9142 44° Northeast 355 409 11,900 -1,200 Descending Washington Center
Wed 12:53:55 PM 38.6486 -76.8144 44° Northeast 357 411 10,100 -1,400 Descending Washington Center
Wed 12:54:55 PM 38.7100 -76.7356 45° Northeast 337 388 9,100 -1,200 Descending Washington Center
Wed 12:55:55 PM 38.7503 -76.6378 62° Northeast 319 367 7,700 -1,500 Descending Washington Center
Wed 12:56:15 PM 38.7667 -76.6000 61° Northeast 312 359 7,100 -1,500 Descending Potomac TRACON
Wed 12:57:15 PM 38.8333 -76.5333 38° Northeast 314 361 5,700 -1,409 Descending Potomac TRACON
Wed 12:58:10 PM 38.8833 -76.5500 345° North 285 328 4,400 -843 Descending Potomac TRACON
Wed 12:59:16 PM 38.9667 -76.6000 335° Northwest 259 298 4,000 -190 Descending Potomac TRACON
Wed 01:00:16 PM 39.0000 -76.6667 303° West 243 280 4,000 -200 Level Potomac TRACON
Wed 01:01:16 PM 39.0500 -76.7500 308° West 265 305 3,600 -684 Descending Potomac TRACON
Wed 01:02:10 PM 39.1000 -76.7833 333° Northwest 259 298 2,700 -842 Descending Potomac TRACON
Wed 01:03:10 PM 39.1667 -76.8167 339° North 235 270 2,000 -579 Descending Potomac TRACON
Wed 01:04:04 PM 39.1833 -76.7667 67° East 184 212 1,600 -737 Descending Potomac TRACON
Wed 01:05:04 PM 39.1833 -76.7167 90° East 141 162 600 -1,000 Descending Potomac TRACON
Wed 01:07:00 PM 39.1667 -76.6667 113° Southeast  Level FlightAware Approximate
Wed 01:14:00 PM 39.1754 -76.6683 113° Southeast  Level Estimated
Wed 01:15:00 PM 39.1754 -76.6683 113° Southeast  Level Estimated
Wed 01:16:00 PM 39.1754 -76.6683 113° Southeast  Level Estimated

Login

Don't have an account? Register now (free) for customized features, flight alerts, and more!